Aeroporto :
LOGIN :

Iscrizione | Disclaimer

   EN    FR    IT 

 










Sommario :    VFR   VFR Marginale   IFR   IFR Intensivo   IFR Molto Intensivo
Visibilità : 
Base nubi : 
>= 8 km
>= 3000ft
5 / 8 km
1000 / 3000 ft
1500m / 5 km
500 / 1000 ft
800 / 1500m
200 / 500 ft
< 800m
< 200 ft
Simboli :   Temporali  Nebbia  Neve Forte  Precipitazioni Forti  Vento > 20 kt
SIGMETs :   Varie  Temporali  Ghiacco  Turbolenza  Onda orograficha  Ceneri Vulcaniche






- Altitudine del aeroporto : 138 ft
- Codice IATA : BIO


LEBB - Bilbao

ULTIMO METAR :
  • 300400Z 08004KT CAVOK 05/05 Q1022 NOSIG

METARs OBSOLETI :
  • 300330Z AUTO VRB01KT CAVOK 06/06 Q1021
  • 300300Z AUTO VRB01KT CAVOK 05/05 Q1021
  • 300230Z AUTO 07003KT 030V100 CAVOK 07/07 Q1021
  • 300200Z AUTO 07003KT CAVOK 07/06 Q1021
  • 300130Z AUTO 09004KT 060V120 CAVOK 07/07 Q1021

TAF TAF LEBB
Valido dal 30 a 00 ore il 01 a 00 ore UTC


292300Z 3000/3024 11003KT 9999 FEW010 TX16/3014Z TN03/0100Z
PROB30
TEMPO 3003/3007 3000 BR
PROB40
TEMPO 3018/3024 3000 BR BKN010



MetMap, La meteo Aeronautica in un colpo d'occhio ! - Copyright ORBIFLY Dicembre 2007 - Disclaimer

ORBIFLY MET'MAP TEAM :

Programmazione e sviluppo : Alexandra Zaïnal
Concezione : Baudouin d'Aumeries
Aiuto per la programmazione : Marc-Olivier Méhu
Supporto tecnico e logistico : Manuel Goepfert
Aiuto per la traduzione : Arnaldo La Scala

Contatto : metmap@orbifly.com




FONTI E CREDITI :

   NOAA